createdAt,value
2022-08-25T00:00:14.739Z,10.00
2022-08-25T00:02:41.580Z,10.65
2022-08-25T00:05:21.415Z,11.50
2022-08-25T00:07:47.992Z,10.07
2022-08-25T00:10:14.301Z,10.98
2022-08-25T00:12:40.605Z,10.52
2022-08-25T00:15:06.964Z,11.18
2022-08-25T00:17:33.263Z,10.90
2022-08-25T00:19:59.640Z,10.20
2022-08-25T00:22:25.946Z,9.90
2022-08-25T00:24:52.264Z,10.80
2022-08-25T00:27:18.557Z,10.35
2022-08-25T00:29:44.880Z,10.15
2022-08-25T00:32:11.180Z,10.88
2022-08-25T00:34:37.519Z,11.32
2022-08-25T00:37:03.823Z,11.25
2022-08-25T00:39:30.513Z,10.05
2022-08-25T00:41:57.514Z,11.68
2022-08-25T00:44:23.777Z,10.83
2022-08-25T00:46:50.075Z,10.82
2022-08-25T00:49:24.914Z,9.50
2022-08-25T00:51:51.814Z,9.98
2022-08-25T00:54:18.460Z,9.55
2022-08-25T00:56:45.248Z,10.80
2022-08-25T00:59:11.633Z,10.18
2022-08-25T01:01:38.098Z,10.70
2022-08-25T01:04:04.420Z,10.82
2022-08-25T01:06:30.781Z,9.63
2022-08-25T01:08:57.379Z,9.95
2022-08-25T01:11:23.684Z,9.82
2022-08-25T01:13:50.169Z,10.85
2022-08-25T01:16:16.627Z,10.00
2022-08-25T01:18:43.017Z,10.38
2022-08-25T01:21:09.320Z,10.50
2022-08-25T01:23:35.630Z,10.48
2022-08-25T01:26:01.940Z,10.00
2022-08-25T01:28:28.246Z,9.85
2022-08-25T01:30:54.648Z,9.43
2022-08-25T01:33:22.331Z,10.63
2022-08-25T01:35:48.636Z,9.70
2022-08-25T01:38:14.945Z,10.20
2022-08-25T01:40:41.272Z,11.05
2022-08-25T01:43:07.812Z,10.77
2022-08-25T01:45:34.412Z,10.30
2022-08-25T01:48:00.819Z,9.40
2022-08-25T01:50:27.187Z,11.07
2022-08-25T01:52:53.490Z,10.23
2022-08-25T01:55:19.798Z,9.73
2022-08-25T01:57:46.311Z,10.85
2022-08-25T02:00:13.933Z,10.75
2022-08-25T02:02:42.825Z,10.63
2022-08-25T02:05:10.357Z,11.73
2022-08-25T02:07:36.657Z,11.88
2022-08-25T02:10:04.375Z,11.30
2022-08-25T02:12:36.029Z,10.15
2022-08-25T02:15:02.336Z,12.45
2022-08-25T02:17:28.642Z,10.43
2022-08-25T02:19:56.891Z,10.93
2022-08-25T02:22:23.203Z,11.15
2022-08-25T02:24:49.500Z,11.48
2022-08-25T02:27:15.816Z,9.93
2022-08-25T02:29:42.114Z,10.75
2022-08-25T02:32:10.284Z,10.50
2022-08-25T02:34:37.127Z,11.35
2022-08-25T02:37:03.472Z,10.68
2022-08-25T02:39:29.804Z,10.73
2022-08-25T02:41:56.116Z,12.48
2022-08-25T02:44:22.411Z,10.43
2022-08-25T02:46:48.869Z,11.15
2022-08-25T02:49:15.168Z,10.40
2022-08-25T02:51:41.483Z,11.20
2022-08-25T02:54:07.825Z,11.07
2022-08-25T02:56:34.135Z,10.80
2022-08-25T02:59:00.699Z,11.52
2022-08-25T03:01:28.934Z,10.50
2022-08-25T03:03:55.462Z,9.98
2022-08-25T03:06:24.199Z,10.07
2022-08-25T03:08:50.591Z,10.63
2022-08-25T03:11:17.820Z,11.23
2022-08-25T03:13:44.169Z,11.10
2022-08-25T03:16:11.291Z,10.57
2022-08-25T03:18:38.699Z,11.15
2022-08-25T03:21:05.015Z,10.60
2022-08-25T03:23:31.319Z,11.15
2022-08-25T03:26:16.469Z,11.43
2022-08-25T03:28:42.795Z,10.50
2022-08-25T03:31:09.113Z,10.57
2022-08-25T03:33:35.420Z,10.27
2022-08-25T03:36:01.733Z,11.02
2022-08-25T03:38:28.024Z,12.40
2022-08-25T03:40:54.345Z,11.18
2022-08-25T03:43:20.646Z,10.57
2022-08-25T03:45:47.710Z,10.60
2022-08-25T03:48:14.265Z,11.40
2022-08-25T03:50:40.582Z,11.52
2022-08-25T03:53:07.463Z,10.77
2022-08-25T03:55:37.145Z,11.90
2022-08-25T03:58:03.550Z,10.90
2022-08-25T04:00:30.353Z,11.23
2022-08-25T04:02:56.655Z,11.27
2022-08-25T04:05:23.224Z,11.60
2022-08-25T04:07:53.105Z,11.05
2022-08-25T04:10:20.446Z,10.82
2022-08-25T04:12:49.257Z,12.45
2022-08-25T04:15:15.580Z,11.27
2022-08-25T04:17:41.904Z,11.00
2022-08-25T04:20:08.725Z,11.40
2022-08-25T04:22:36.886Z,11.32
2022-08-25T04:25:03.768Z,11.85
2022-08-25T04:27:30.067Z,12.25
2022-08-25T04:29:56.679Z,12.63
2022-08-25T04:32:22.981Z,13.02
2022-08-25T04:34:49.364Z,12.80
2022-08-25T04:37:15.667Z,12.80
2022-08-25T04:39:42.104Z,12.32
2022-08-25T04:42:08.400Z,12.48
2022-08-25T04:44:34.719Z,13.55
2022-08-25T04:47:01.046Z,13.43
2022-08-25T04:49:28.069Z,11.15
2022-08-25T04:51:54.345Z,13.10
2022-08-25T04:54:23.748Z,12.43
2022-08-25T04:56:50.076Z,11.30
2022-08-25T04:59:20.925Z,11.90
2022-08-25T05:01:47.294Z,13.40
2022-08-25T05:04:28.544Z,11.88
2022-08-25T05:06:55.353Z,12.85
2022-08-25T05:09:21.768Z,11.98
2022-08-25T05:11:48.209Z,12.77
2022-08-25T05:14:18.126Z,12.70
2022-08-25T05:16:45.008Z,12.13
2022-08-25T05:19:11.351Z,11.32
2022-08-25T05:21:37.795Z,12.93
2022-08-25T05:24:04.086Z,11.10
2022-08-25T05:26:30.749Z,11.27
2022-08-25T05:28:57.048Z,11.80
2022-08-25T05:31:23.441Z,11.30
2022-08-25T05:33:49.815Z,11.68
2022-08-25T05:36:16.132Z,10.85
2022-08-25T05:38:42.658Z,13.38
2022-08-25T05:41:10.646Z,11.68
2022-08-25T05:43:36.949Z,10.77
2022-08-25T05:46:03.379Z,11.48
2022-08-25T05:48:30.771Z,11.88
2022-08-25T05:50:57.215Z,13.15
2022-08-25T05:53:23.541Z,12.65
2022-08-25T05:55:49.837Z,11.82
2022-08-25T05:58:16.196Z,12.60
2022-08-25T06:00:42.992Z,11.23
2022-08-25T06:03:09.360Z,12.00
2022-08-25T06:05:35.702Z,11.55
2022-08-25T06:08:02.058Z,10.80
2022-08-25T06:10:28.435Z,11.40
2022-08-25T06:12:54.732Z,10.57
2022-08-25T06:15:23.082Z,10.68
2022-08-25T06:17:49.388Z,11.15
2022-08-25T06:20:15.877Z,10.63
2022-08-25T06:22:42.177Z,12.35
2022-08-25T06:25:09.583Z,12.77
2022-08-25T06:27:35.889Z,11.05
2022-08-25T06:30:08.030Z,11.73
2022-08-25T06:32:35.810Z,10.20
2022-08-25T06:35:02.197Z,13.52
2022-08-25T06:37:28.510Z,12.68
2022-08-25T06:39:55.630Z,12.00
2022-08-25T06:42:21.966Z,11.80
2022-08-25T06:44:48.269Z,10.32
2022-08-25T06:47:15.833Z,10.77
2022-08-25T06:49:42.444Z,10.80
2022-08-25T06:52:08.937Z,11.00
2022-08-25T06:54:35.241Z,11.45
2022-08-25T06:57:01.562Z,11.45
2022-08-25T06:59:32.105Z,12.05
2022-08-25T07:01:59.415Z,12.18
2022-08-25T07:04:26.069Z,12.63
2022-08-25T07:06:56.027Z,15.48
2022-08-25T07:09:22.338Z,13.35
2022-08-25T07:11:48.665Z,12.75
2022-08-25T07:14:16.070Z,13.50
2022-08-25T07:16:47.214Z,13.48
2022-08-25T07:19:15.912Z,12.70
2022-08-25T07:21:42.401Z,12.18
2022-08-25T07:24:11.691Z,13.20
2022-08-25T07:26:38.969Z,12.68
2022-08-25T07:29:05.552Z,13.85
2022-08-25T07:31:31.996Z,13.50
2022-08-25T07:34:16.815Z,13.15
2022-08-25T07:36:43.363Z,11.90
2022-08-25T07:39:09.671Z,13.20
2022-08-25T07:41:36.013Z,12.95
2022-08-25T07:44:02.312Z,13.18
2022-08-25T07:46:28.643Z,12.98
2022-08-25T07:48:55.024Z,12.65
2022-08-25T07:51:21.387Z,12.55
2022-08-25T07:53:48.836Z,12.38
2022-08-25T07:56:15.185Z,14.57
2022-08-25T07:58:42.261Z,13.02
2022-08-25T08:01:08.683Z,12.13
2022-08-25T08:03:50.074Z,13.05
2022-08-25T08:09:07.647Z,13.02
2022-08-25T08:11:34.455Z,12.05
2022-08-25T08:14:00.701Z,13.07
2022-08-25T08:16:27.053Z,12.95
2022-08-25T08:18:53.413Z,12.07
2022-08-25T08:21:20.143Z,13.50
2022-08-25T08:23:47.169Z,13.88
2022-08-25T08:26:13.520Z,14.20
2022-08-25T08:28:39.841Z,14.43
2022-08-25T08:31:06.627Z,12.57
2022-08-25T08:33:40.734Z,13.68
2022-08-25T08:36:07.363Z,13.48
2022-08-25T08:38:33.851Z,13.25
2022-08-25T08:41:21.848Z,12.52
2022-08-25T08:43:50.048Z,13.65
2022-08-25T08:46:17.009Z,13.18
2022-08-25T08:48:43.384Z,11.88
2022-08-25T08:51:10.013Z,12.05
2022-08-25T08:53:36.376Z,12.82
2022-08-25T08:56:02.705Z,12.55
2022-08-25T08:58:29.028Z,11.60
2022-08-25T09:00:55.825Z,10.95
2022-08-25T09:03:24.546Z,10.90
2022-08-25T09:05:51.383Z,10.90
2022-08-25T09:08:20.394Z,9.50
2022-08-25T09:10:47.059Z,10.25
2022-08-25T09:13:15.440Z,9.82
2022-08-25T09:16:01.374Z,10.35
2022-08-25T09:18:27.756Z,11.45
2022-08-25T09:20:54.071Z,10.00
2022-08-25T09:23:20.772Z,10.70
2022-08-25T09:25:52.739Z,11.02
2022-08-25T09:28:20.727Z,12.32
2022-08-25T09:30:47.230Z,9.40
2022-08-25T09:33:13.635Z,9.52
2022-08-25T09:35:47.403Z,8.93
2022-08-25T09:38:16.242Z,10.68
2022-08-25T09:40:42.634Z,9.00
2022-08-25T09:43:08.937Z,10.18
2022-08-25T09:45:35.309Z,8.32
2022-08-25T09:48:02.638Z,7.28
2022-08-25T09:50:29.036Z,7.60
2022-08-25T09:52:55.359Z,8.93
2022-08-25T09:55:21.698Z,8.35
2022-08-25T09:57:53.049Z,7.57
2022-08-25T10:00:19.605Z,7.72
2022-08-25T10:02:45.928Z,6.68
2022-08-25T10:05:12.275Z,6.60
2022-08-25T10:07:38.644Z,6.88
2022-08-25T10:10:07.558Z,6.07
2022-08-25T10:12:36.300Z,6.43
2022-08-25T10:15:09.181Z,6.15
2022-08-25T10:17:35.655Z,6.75
2022-08-25T10:20:01.972Z,6.32
2022-08-25T10:22:34.284Z,7.43
2022-08-25T10:25:00.580Z,6.47
2022-08-25T10:27:30.997Z,6.75
2022-08-25T10:29:57.304Z,5.60
2022-08-25T10:32:27.919Z,6.40
2022-08-25T10:34:54.532Z,6.10
2022-08-25T10:37:20.874Z,5.80
2022-08-25T10:39:54.904Z,6.25
2022-08-25T10:42:25.860Z,5.50
2022-08-25T10:45:14.812Z,6.18
2022-08-25T10:47:44.554Z,6.75
2022-08-25T10:50:10.913Z,5.95
2022-08-25T10:52:38.145Z,5.40
2022-08-25T10:55:04.883Z,6.75
2022-08-25T10:57:31.160Z,6.10
2022-08-25T10:59:57.507Z,6.03
2022-08-25T11:02:27.923Z,6.68
2022-08-25T11:04:54.783Z,7.80
2022-08-25T11:07:21.209Z,7.28
2022-08-25T11:09:49.241Z,6.15
2022-08-25T11:12:15.727Z,6.47
2022-08-25T11:14:42.981Z,7.05
2022-08-25T11:17:09.390Z,6.22
2022-08-25T11:19:35.724Z,6.90
2022-08-25T11:22:02.099Z,7.13
2022-08-25T11:24:28.395Z,6.03
2022-08-25T11:26:54.712Z,5.95
2022-08-25T11:29:21.795Z,7.03
2022-08-25T11:31:52.755Z,6.68
2022-08-25T11:34:19.756Z,6.38
2022-08-25T11:36:46.488Z,6.05
2022-08-25T11:39:12.748Z,7.77
2022-08-25T11:41:40.617Z,5.47
2022-08-25T11:44:06.944Z,6.32
2022-08-25T11:46:33.289Z,5.43
2022-08-25T11:48:59.640Z,7.97
2022-08-25T11:51:26.250Z,6.55
2022-08-25T11:53:57.173Z,6.10
2022-08-25T11:56:23.536Z,6.78
2022-08-25T11:58:50.173Z,5.57
2022-08-25T12:01:16.452Z,6.17
2022-08-25T12:03:43.043Z,7.30
2022-08-25T12:06:12.930Z,7.10
2022-08-25T12:08:39.540Z,6.95
2022-08-25T12:11:11.222Z,6.57
2022-08-25T12:13:38.340Z,5.65
2022-08-25T12:16:04.743Z,6.75
2022-08-25T12:18:31.100Z,6.22
2022-08-25T12:20:57.417Z,6.50
2022-08-25T12:23:23.734Z,5.65
2022-08-25T12:25:51.089Z,5.65
2022-08-25T12:28:17.463Z,6.22
2022-08-25T12:30:45.891Z,7.10
2022-08-25T12:33:14.119Z,7.00
2022-08-25T12:35:41.140Z,7.97
2022-08-25T12:38:08.883Z,7.30
2022-08-25T12:40:35.507Z,4.75
2022-08-25T12:43:02.104Z,5.60
2022-08-25T12:45:28.439Z,6.72
2022-08-25T12:47:57.429Z,5.50
2022-08-25T12:50:24.335Z,7.32
2022-08-25T12:52:51.033Z,6.38
2022-08-25T12:55:17.338Z,5.03
2022-08-25T12:57:43.676Z,6.13
2022-08-25T13:00:12.775Z,5.38
2022-08-25T13:02:39.773Z,5.43
2022-08-25T13:05:16.045Z,6.15
2022-08-25T13:07:42.460Z,5.45
2022-08-25T13:10:08.763Z,4.97
2022-08-25T13:12:35.070Z,6.32
2022-08-25T13:15:01.457Z,5.55
2022-08-25T13:17:28.203Z,5.55
2022-08-25T13:19:55.387Z,5.20
2022-08-25T13:22:22.055Z,4.90
2022-08-25T13:24:52.122Z,5.43
2022-08-25T13:27:22.685Z,4.47
2022-08-25T13:29:49.347Z,5.65
2022-08-25T13:32:17.599Z,4.80
2022-08-25T13:34:44.056Z,4.93
2022-08-25T13:37:31.187Z,4.93
2022-08-25T13:39:58.799Z,5.15
2022-08-25T13:44:55.846Z,5.72
2022-08-25T13:47:23.148Z,5.78
2022-08-25T13:49:50.068Z,6.35
2022-08-25T13:52:18.508Z,4.85
2022-08-25T13:54:45.012Z,6.68
2022-08-25T13:57:12.080Z,6.47
2022-08-25T13:59:40.099Z,5.70
2022-08-25T14:02:06.821Z,6.28
2022-08-25T14:04:33.947Z,5.97
2022-08-25T14:07:00.260Z,5.28
2022-08-25T14:09:28.202Z,5.50
2022-08-25T14:11:54.819Z,6.45
2022-08-25T14:14:22.067Z,5.47
2022-08-25T14:16:49.431Z,5.57
2022-08-25T14:19:19.808Z,4.73
2022-08-25T14:21:46.520Z,6.72
2022-08-25T14:24:16.045Z,6.10
2022-08-25T14:26:54.394Z,5.80
2022-08-25T14:29:22.026Z,5.35
2022-08-25T14:31:48.426Z,5.75
2022-08-25T14:34:15.160Z,5.75
2022-08-25T14:36:42.566Z,5.95
2022-08-25T14:39:11.171Z,5.65
2022-08-25T14:41:37.473Z,6.25
2022-08-25T14:44:05.059Z,5.10
2022-08-25T14:48:57.700Z,5.43
2022-08-25T14:51:24.086Z,5.78
2022-08-25T14:53:51.521Z,5.45
2022-08-25T14:56:17.755Z,7.13
2022-08-25T14:58:51.083Z,5.03
2022-08-25T15:01:28.450Z,6.50
2022-08-25T15:03:56.011Z,5.32
2022-08-25T15:06:22.353Z,5.55
2022-08-25T15:09:07.273Z,5.60
2022-08-25T15:11:34.210Z,6.00
2022-08-25T15:14:01.629Z,6.25
2022-08-25T15:16:33.963Z,6.13
2022-08-25T15:19:01.657Z,5.82
2022-08-25T15:21:32.860Z,7.82
2022-08-25T15:24:00.344Z,5.28
2022-08-25T15:26:26.648Z,5.30
2022-08-25T15:28:52.993Z,6.30
2022-08-25T15:31:20.045Z,5.75
2022-08-25T15:33:46.619Z,4.95
2022-08-25T15:36:15.215Z,6.07
2022-08-25T15:38:41.758Z,6.05
2022-08-25T15:41:08.347Z,5.80
2022-08-25T15:43:36.747Z,6.85
2022-08-25T15:46:03.079Z,6.18
2022-08-25T15:48:29.635Z,6.43
2022-08-25T15:50:56.723Z,6.88
2022-08-25T15:53:23.019Z,6.30
2022-08-25T15:55:52.375Z,7.78
2022-08-25T15:58:20.475Z,6.25
2022-08-25T16:00:56.259Z,6.38
2022-08-25T16:03:23.082Z,5.55
2022-08-25T16:05:50.358Z,7.07
2022-08-25T16:08:19.379Z,5.93
2022-08-25T16:10:46.274Z,6.50
2022-08-25T16:13:12.586Z,8.73
2022-08-25T16:15:38.893Z,5.60
2022-08-25T16:18:05.259Z,6.45
2022-08-25T16:20:31.675Z,7.90
2022-08-25T16:23:00.586Z,7.57
2022-08-25T16:27:53.131Z,7.47
2022-08-25T16:30:19.427Z,8.00
2022-08-25T16:32:46.541Z,8.15
2022-08-25T16:35:13.191Z,7.32
2022-08-25T16:37:42.850Z,6.30
2022-08-25T16:40:10.224Z,7.22
2022-08-25T16:42:37.002Z,7.40
2022-08-25T16:45:05.165Z,7.90
2022-08-25T16:47:34.379Z,6.80
2022-08-25T16:50:00.681Z,7.15
2022-08-25T16:52:46.328Z,7.10
2022-08-25T16:55:12.775Z,6.88
2022-08-25T16:57:39.071Z,6.65
2022-08-25T17:00:05.557Z,6.47
2022-08-25T17:02:31.873Z,6.78
2022-08-25T17:04:59.193Z,7.50
2022-08-25T17:07:26.171Z,7.70
2022-08-25T17:09:53.084Z,7.82
2022-08-25T17:12:20.315Z,6.47
2022-08-25T17:14:47.344Z,7.57
2022-08-25T17:17:13.830Z,8.02
2022-08-25T17:19:45.395Z,8.70
2022-08-25T17:22:15.552Z,7.85
2022-08-25T17:24:42.148Z,8.23
2022-08-25T17:27:08.472Z,6.65
2022-08-25T17:29:34.919Z,6.75
2022-08-25T17:32:01.238Z,6.40
2022-08-25T17:34:27.906Z,7.00
2022-08-25T17:36:54.771Z,7.45
2022-08-25T17:39:22.327Z,8.68
2022-08-25T17:41:48.867Z,7.60
2022-08-25T17:44:16.202Z,7.20
2022-08-25T17:46:47.323Z,7.18
2022-08-25T17:49:14.907Z,7.43
2022-08-25T17:54:08.061Z,7.05
2022-08-25T17:56:34.481Z,8.02
2022-08-25T17:59:01.832Z,7.90
2022-08-25T18:01:28.197Z,7.93
2022-08-25T18:03:54.545Z,7.63
2022-08-25T18:06:22.328Z,7.60
2022-08-25T18:08:52.375Z,8.60
2022-08-25T18:11:20.119Z,8.60
2022-08-25T18:13:46.447Z,9.95
2022-08-25T18:16:13.207Z,8.75
2022-08-25T18:18:39.436Z,8.07
2022-08-25T18:21:09.117Z,10.25
2022-08-25T18:23:35.725Z,8.20
2022-08-25T18:26:02.511Z,8.38
2022-08-25T18:28:29.144Z,8.82
2022-08-25T18:30:55.500Z,9.75
2022-08-25T18:33:22.637Z,10.00
2022-08-25T18:35:48.930Z,9.05
2022-08-25T18:38:33.982Z,9.10
2022-08-25T18:41:00.761Z,10.00
2022-08-25T18:43:28.112Z,9.27
2022-08-25T18:45:59.372Z,8.82
2022-08-25T18:48:26.682Z,8.50
2022-08-25T18:50:56.699Z,9.43
2022-08-25T18:53:30.538Z,8.13
2022-08-25T18:56:03.517Z,8.15
2022-08-25T18:58:29.817Z,8.85
2022-08-25T19:00:56.377Z,8.30
2022-08-25T19:03:23.443Z,9.32
2022-08-25T19:05:52.820Z,10.60
2022-08-25T19:08:23.961Z,10.48
2022-08-25T19:10:50.291Z,11.40
2022-08-25T19:13:16.731Z,9.30
2022-08-25T19:15:48.883Z,8.73
2022-08-25T19:18:17.373Z,9.68
2022-08-25T19:20:44.604Z,9.38
2022-08-25T19:23:11.026Z,8.48
2022-08-25T19:25:41.665Z,10.27
2022-08-25T19:28:08.373Z,9.13
2022-08-25T19:30:38.324Z,9.60
2022-08-25T19:33:16.117Z,9.77
2022-08-25T19:36:02.396Z,9.13
2022-08-25T19:38:33.411Z,11.35
2022-08-25T19:41:00.703Z,8.77
2022-08-25T19:43:27.211Z,10.98
2022-08-25T19:45:53.524Z,9.25
2022-08-25T19:48:19.891Z,9.85
2022-08-25T19:50:47.795Z,10.80
2022-08-25T19:53:22.233Z,9.77
2022-08-25T19:55:48.548Z,9.65
2022-08-25T19:58:15.268Z,9.70
2022-08-25T20:00:46.175Z,11.32
2022-08-25T20:03:14.610Z,10.38
2022-08-25T20:05:41.587Z,9.25
2022-08-25T20:08:07.824Z,11.30
2022-08-25T20:10:39.432Z,10.95
2022-08-25T20:13:08.480Z,11.13
2022-08-25T20:15:39.127Z,11.05
2022-08-25T20:18:05.756Z,9.82
2022-08-25T20:20:34.653Z,10.30
2022-08-25T20:23:20.500Z,9.98
2022-08-25T20:25:46.814Z,10.23
2022-08-25T20:28:13.115Z,10.82
2022-08-25T20:30:45.493Z,9.95
2022-08-25T20:33:11.824Z,11.80
2022-08-25T20:35:38.461Z,9.00
2022-08-25T20:38:05.299Z,11.07
2022-08-25T20:40:32.375Z,9.90
2022-08-25T20:42:58.785Z,10.07
2022-08-25T20:45:25.387Z,10.05
2022-08-25T20:47:51.679Z,10.55
2022-08-25T20:50:18.178Z,10.32
2022-08-25T20:52:44.486Z,12.52
2022-08-25T20:55:11.102Z,10.05
2022-08-25T20:57:38.479Z,9.68
2022-08-25T21:00:04.701Z,10.37
2022-08-25T21:02:31.064Z,9.48
2022-08-25T21:04:57.679Z,12.55
2022-08-25T21:07:24.141Z,10.25
2022-08-25T21:09:50.495Z,12.90
2022-08-25T21:12:18.268Z,9.98
2022-08-25T21:14:44.615Z,11.30
2022-08-25T21:17:11.265Z,11.05
2022-08-25T21:19:39.057Z,10.43
2022-08-25T21:22:06.262Z,10.68
2022-08-25T21:24:32.580Z,11.90
2022-08-25T21:26:59.775Z,10.23
2022-08-25T21:29:28.414Z,10.05
2022-08-25T21:31:55.015Z,10.00
2022-08-25T21:34:21.253Z,12.13
2022-08-25T21:36:48.728Z,10.80
2022-08-25T21:39:15.021Z,10.88
2022-08-25T21:41:42.692Z,11.88
2022-08-25T21:44:09.280Z,10.77
2022-08-25T21:46:35.693Z,10.63
2022-08-25T21:49:05.967Z,10.70
2022-08-25T21:51:32.902Z,10.73
2022-08-25T21:54:08.993Z,11.13
2022-08-25T21:56:35.317Z,10.95
2022-08-25T21:59:02.248Z,10.77
2022-08-25T22:01:28.838Z,10.55
2022-08-25T22:03:55.493Z,11.30
2022-08-25T22:06:23.080Z,11.63
2022-08-25T22:08:49.921Z,10.23
2022-08-25T22:11:16.333Z,11.93
2022-08-25T22:13:44.080Z,11.27
2022-08-25T22:16:11.889Z,11.35
2022-08-25T22:18:38.722Z,10.75
2022-08-25T22:21:09.620Z,10.95
2022-08-25T22:23:44.149Z,10.30
2022-08-25T22:26:11.348Z,11.20
2022-08-25T22:28:37.658Z,11.77
2022-08-25T22:31:04.202Z,11.05
2022-08-25T22:33:31.243Z,10.57
2022-08-25T22:35:59.758Z,10.90
2022-08-25T22:38:26.470Z,10.23
2022-08-25T22:40:52.779Z,11.45
2022-08-25T22:43:19.104Z,12.35
2022-08-25T22:45:45.486Z,13.00
2022-08-25T22:48:11.837Z,11.52
2022-08-25T22:50:38.132Z,11.07
2022-08-25T22:53:04.500Z,11.40
2022-08-25T22:55:30.893Z,12.02
2022-08-25T22:57:57.231Z,9.95
2022-08-25T23:00:23.532Z,10.98
2022-08-25T23:02:53.192Z,10.82
2022-08-25T23:05:19.627Z,11.85
2022-08-25T23:07:45.933Z,10.88
2022-08-25T23:10:12.737Z,12.00
2022-08-25T23:12:39.479Z,13.20
2022-08-25T23:15:10.105Z,12.93
2022-08-25T23:17:37.294Z,11.02
2022-08-25T23:20:23.638Z,11.63
2022-08-25T23:22:50.065Z,12.55
2022-08-25T23:25:19.845Z,11.48
2022-08-25T23:27:46.428Z,11.60
2022-08-25T23:30:13.002Z,11.95
2022-08-25T23:32:39.312Z,12.40
2022-08-25T23:35:05.922Z,11.50
2022-08-25T23:37:32.219Z,11.88
2022-08-25T23:39:58.723Z,12.32
2022-08-25T23:42:25.296Z,13.30
2022-08-25T23:44:51.604Z,12.95
2022-08-25T23:47:18.055Z,12.05
2022-08-25T23:49:44.355Z,12.57
2022-08-25T23:52:10.672Z,12.25
2022-08-25T23:54:36.977Z,12.43
2022-08-25T23:57:03.283Z,12.93
2022-08-25T23:59:33.155Z,13.48
